createdAt,value
2023-03-05T00:01:29.099Z,7.47
2023-03-05T00:03:54.747Z,7.52
2023-03-05T00:06:20.324Z,7.48
2023-03-05T00:08:45.899Z,7.47
2023-03-05T00:11:11.403Z,7.43
2023-03-05T00:13:36.897Z,7.40
2023-03-05T00:16:02.484Z,7.44
2023-03-05T00:18:28.251Z,7.44
2023-03-05T00:25:55.117Z,7.50
2023-03-05T00:28:20.626Z,7.50
2023-03-05T00:30:46.214Z,7.48
2023-03-05T00:33:11.746Z,7.43
2023-03-05T00:35:37.337Z,7.46
2023-03-05T00:38:02.873Z,7.39
2023-03-05T00:40:28.387Z,7.47
2023-03-05T00:46:07.012Z,7.37
2023-03-05T00:48:32.574Z,7.41
2023-03-05T00:50:58.118Z,7.35
2023-03-05T00:53:23.612Z,7.30
2023-03-05T00:55:49.123Z,7.32
2023-03-05T00:58:14.680Z,7.28
2023-03-05T01:00:40.193Z,7.21
2023-03-05T01:03:05.792Z,7.11
2023-03-05T01:10:33.370Z,7.19
2023-03-05T01:12:58.961Z,7.22
2023-03-05T01:15:24.518Z,7.26
2023-03-05T01:17:50.093Z,7.28
2023-03-05T01:20:15.600Z,7.33
2023-03-05T01:22:41.148Z,7.37
2023-03-05T01:25:06.950Z,7.36
2023-03-05T01:27:32.576Z,7.33
2023-03-05T01:34:55.534Z,7.31
2023-03-05T01:37:21.083Z,7.32
2023-03-05T01:39:46.625Z,7.34
2023-03-05T01:42:12.188Z,7.35
2023-03-05T01:44:37.711Z,7.33
2023-03-05T01:47:03.247Z,7.35
2023-03-05T01:49:28.780Z,7.31
2023-03-05T01:51:54.566Z,7.27
2023-03-05T01:59:21.500Z,7.23
2023-03-05T02:01:47.099Z,7.28
2023-03-05T02:04:12.764Z,7.25
2023-03-05T02:06:38.354Z,7.23
2023-03-05T02:09:03.839Z,7.20
2023-03-05T02:11:29.361Z,7.26
2023-03-05T02:13:54.867Z,7.26
2023-03-05T02:16:20.427Z,7.28
2023-03-05T02:23:47.657Z,7.27
2023-03-05T02:26:13.182Z,7.29
2023-03-05T02:28:38.739Z,7.32
2023-03-05T02:31:04.272Z,7.28
2023-03-05T02:33:29.826Z,7.22
2023-03-05T02:35:55.357Z,7.20
2023-03-05T02:38:20.933Z,7.20
2023-03-05T02:40:46.759Z,7.25
2023-03-05T02:48:13.745Z,7.22
2023-03-05T02:50:39.255Z,7.18
2023-03-05T02:53:04.740Z,7.20
2023-03-05T02:55:30.244Z,7.21
2023-03-05T02:57:55.753Z,7.19
2023-03-05T03:00:21.334Z,7.09
2023-03-05T03:02:46.836Z,7.05
2023-03-05T03:05:12.353Z,7.05
2023-03-05T03:12:39.810Z,7.09
2023-03-05T03:15:05.360Z,7.09
2023-03-05T03:17:30.906Z,7.14
2023-03-05T03:19:56.448Z,7.06
2023-03-05T03:22:21.980Z,7.07
2023-03-05T03:24:47.470Z,7.12
2023-03-05T03:27:13.035Z,7.09
2023-03-05T03:29:38.762Z,7.11
2023-03-05T03:37:05.970Z,7.00
2023-03-05T03:39:31.466Z,6.99
2023-03-05T03:41:56.979Z,6.91
2023-03-05T03:44:22.555Z,6.92
2023-03-05T03:46:48.105Z,6.88
2023-03-05T03:49:13.667Z,6.82
2023-03-05T03:51:39.206Z,6.85
2023-03-05T03:54:04.699Z,6.90
2023-03-05T04:01:32.061Z,6.90
2023-03-05T04:03:57.579Z,6.89
2023-03-05T04:06:23.121Z,6.93
2023-03-05T04:08:48.649Z,6.87
2023-03-05T04:11:14.154Z,6.92
2023-03-05T04:13:39.707Z,6.91
2023-03-05T04:16:05.211Z,6.94
2023-03-05T04:18:32.527Z,6.95
2023-03-05T04:25:59.736Z,7.02
2023-03-05T04:28:25.341Z,7.00
2023-03-05T04:30:50.882Z,7.00
2023-03-05T04:33:16.438Z,6.89
2023-03-05T04:35:41.968Z,6.81
2023-03-05T04:38:07.507Z,6.78
2023-03-05T04:40:33.061Z,6.71
2023-03-05T04:42:58.550Z,6.75
2023-03-05T04:50:25.876Z,6.67
2023-03-05T04:52:51.373Z,6.75
2023-03-05T04:55:16.909Z,6.82
2023-03-05T04:57:42.463Z,6.89
2023-03-05T05:00:07.960Z,6.90
2023-03-05T05:02:33.566Z,6.90
2023-03-05T05:04:59.094Z,6.96
2023-03-05T05:07:24.627Z,7.00
2023-03-05T05:16:52.105Z,6.91
2023-03-05T05:19:17.727Z,6.90
2023-03-05T05:21:43.261Z,6.92
2023-03-05T05:24:08.804Z,6.93
2023-03-05T05:26:34.400Z,6.96
2023-03-05T05:28:59.937Z,6.92
2023-03-05T05:31:25.519Z,6.97
2023-03-05T05:33:51.084Z,6.98
2023-03-05T05:41:18.187Z,6.95
2023-03-05T05:43:43.724Z,6.97
2023-03-05T05:46:09.292Z,6.93
2023-03-05T05:48:34.884Z,6.96
2023-03-05T05:51:00.402Z,6.97
2023-03-05T05:53:25.886Z,7.01
2023-03-05T05:55:51.427Z,7.02
2023-03-05T05:58:17.218Z,6.97
2023-03-05T06:05:44.323Z,6.95
2023-03-05T06:08:09.856Z,6.92
2023-03-05T06:10:35.443Z,6.89
2023-03-05T06:13:01.044Z,6.91
2023-03-05T06:15:26.544Z,6.92
2023-03-05T06:17:52.070Z,6.92
2023-03-05T06:20:17.616Z,6.93
2023-03-05T06:22:43.158Z,6.96
2023-03-05T06:30:10.458Z,6.92
2023-03-05T06:32:36.313Z,6.93
2023-03-05T06:35:01.894Z,6.89
2023-03-05T06:37:27.459Z,6.91
2023-03-05T06:39:52.967Z,7.01
2023-03-05T06:42:18.504Z,6.98
2023-03-05T06:44:45.195Z,6.92
2023-03-05T06:47:11.733Z,6.93
2023-03-05T06:54:34.546Z,6.92
2023-03-05T06:57:00.153Z,6.92
2023-03-05T06:59:25.642Z,6.87
2023-03-05T07:01:51.141Z,6.93
2023-03-05T07:04:16.657Z,6.90
2023-03-05T07:06:42.156Z,6.95
2023-03-05T07:09:07.705Z,6.98
2023-03-05T07:14:15.981Z,6.95
2023-03-05T07:16:41.481Z,6.98
2023-03-05T07:19:07.016Z,7.00
2023-03-05T07:21:32.518Z,7.06
2023-03-05T07:23:58.108Z,7.15
2023-03-05T07:26:23.619Z,7.19
2023-03-05T07:28:49.175Z,7.30
2023-03-05T07:34:27.893Z,7.08
2023-03-05T07:36:53.400Z,7.02
2023-03-05T07:39:18.937Z,6.95
2023-03-05T07:41:44.549Z,6.99
2023-03-05T07:44:10.059Z,7.04
2023-03-05T07:46:35.696Z,7.15
2023-03-05T07:49:01.236Z,7.26
2023-03-05T07:54:04.421Z,7.37
2023-03-05T07:56:29.973Z,7.42
2023-03-05T07:58:55.616Z,7.44
2023-03-05T08:01:21.150Z,7.54
2023-03-05T08:03:46.687Z,7.49
2023-03-05T08:06:12.258Z,7.44
2023-03-05T08:08:37.819Z,7.43
2023-03-05T08:11:04.386Z,7.35
2023-03-05T08:18:32.109Z,7.31
2023-03-05T08:20:57.605Z,7.42
2023-03-05T08:23:23.088Z,7.32
2023-03-05T08:25:48.643Z,7.25
2023-03-05T08:28:14.175Z,7.14
2023-03-05T08:30:39.665Z,7.12
2023-03-05T08:33:05.170Z,7.23
2023-03-05T08:35:30.712Z,7.39
2023-03-05T08:42:58.248Z,7.45
2023-03-05T08:45:23.898Z,7.45
2023-03-05T08:47:49.392Z,7.32
2023-03-05T08:50:15.013Z,7.46
2023-03-05T08:52:40.505Z,7.55
2023-03-05T08:55:06.029Z,7.57
2023-03-05T08:57:31.555Z,7.61
2023-03-05T08:59:57.416Z,7.77
2023-03-05T09:07:24.352Z,7.86
2023-03-05T09:09:49.900Z,8.04
2023-03-05T09:12:15.448Z,8.20
2023-03-05T09:14:41.017Z,8.16
2023-03-05T09:17:06.507Z,8.16
2023-03-05T09:19:32.055Z,8.16
2023-03-05T09:21:57.602Z,8.13
2023-03-05T09:24:23.429Z,8.23
2023-03-05T09:31:53.063Z,8.25
2023-03-05T09:34:18.591Z,8.31
2023-03-05T09:36:44.105Z,8.42
2023-03-05T09:39:09.667Z,8.50
2023-03-05T09:41:35.276Z,8.65
2023-03-05T09:44:00.799Z,8.57
2023-03-05T09:46:26.355Z,8.46
2023-03-05T09:48:51.849Z,8.52
2023-03-05T09:56:18.869Z,8.91
2023-03-05T09:58:44.408Z,8.86
2023-03-05T10:01:09.917Z,8.81
2023-03-05T10:03:35.516Z,8.77
2023-03-05T10:06:01.112Z,8.92
2023-03-05T10:08:26.620Z,9.06
2023-03-05T10:10:52.111Z,9.13
2023-03-05T10:15:57.073Z,9.31
2023-03-05T10:18:22.551Z,9.25
2023-03-05T10:20:48.108Z,9.22
2023-03-05T10:23:13.663Z,9.13
2023-03-05T10:25:39.199Z,9.12
2023-03-05T10:28:04.745Z,9.12
2023-03-05T10:30:30.259Z,9.11
2023-03-05T10:35:44.988Z,8.81
2023-03-05T10:38:10.558Z,8.79
2023-03-05T10:40:36.088Z,8.72
2023-03-05T10:43:01.605Z,8.67
2023-03-05T10:45:27.130Z,8.65
2023-03-05T10:47:52.659Z,8.47
2023-03-05T10:50:18.246Z,8.43
2023-03-05T10:52:44.078Z,8.52
2023-03-05T11:00:10.979Z,8.60
2023-03-05T11:02:36.571Z,8.61
2023-03-05T11:05:04.178Z,8.69
2023-03-05T11:07:30.640Z,8.67
2023-03-05T11:09:56.141Z,8.70
2023-03-05T11:12:21.676Z,8.74
2023-03-05T11:14:47.201Z,8.83
2023-03-05T11:17:12.933Z,8.85
2023-03-05T11:24:40.268Z,8.76
2023-03-05T11:27:05.793Z,8.75
2023-03-05T11:29:31.292Z,8.77
2023-03-05T11:31:56.830Z,8.76
2023-03-05T11:34:22.330Z,8.80
2023-03-05T11:36:47.830Z,8.79
2023-03-05T11:39:13.415Z,8.80
2023-03-05T11:41:38.941Z,8.80
2023-03-05T11:49:06.395Z,8.85
2023-03-05T11:51:31.984Z,8.87
2023-03-05T11:53:57.491Z,8.90
2023-03-05T11:56:23.003Z,8.96
2023-03-05T11:58:48.519Z,9.07
2023-03-05T12:01:14.047Z,9.06
2023-03-05T12:03:39.633Z,9.08
2023-03-05T12:06:05.379Z,9.07
2023-03-05T12:13:32.521Z,9.04
2023-03-05T12:15:58.038Z,9.10
2023-03-05T12:18:23.556Z,9.08
2023-03-05T12:20:49.189Z,9.11
2023-03-05T12:23:14.746Z,8.98
2023-03-05T12:25:40.241Z,8.93
2023-03-05T12:28:05.745Z,8.93
2023-03-05T12:30:31.515Z,8.87
2023-03-05T12:37:58.610Z,8.76
2023-03-05T12:40:24.104Z,8.74
2023-03-05T12:42:49.633Z,8.71
2023-03-05T12:45:15.145Z,8.69
2023-03-05T12:47:40.751Z,8.69
2023-03-05T12:50:06.306Z,8.75
2023-03-05T12:52:31.808Z,8.67
2023-03-05T12:54:57.640Z,8.65
2023-03-05T13:02:24.719Z,8.61
2023-03-05T13:04:50.244Z,8.60
2023-03-05T13:07:15.721Z,8.61
2023-03-05T13:09:41.269Z,8.59
2023-03-05T13:12:06.808Z,8.63
2023-03-05T13:14:32.400Z,8.62
2023-03-05T13:16:57.917Z,8.52
2023-03-05T13:19:23.649Z,8.55
2023-03-05T13:26:50.809Z,8.59
2023-03-05T13:29:16.303Z,8.53
2023-03-05T13:31:41.857Z,8.58
2023-03-05T13:34:07.362Z,8.56
2023-03-05T13:36:32.892Z,8.62
2023-03-05T13:38:58.380Z,8.58
2023-03-05T13:41:23.861Z,8.57
2023-03-05T13:43:49.582Z,8.63
2023-03-05T13:51:16.912Z,8.80
2023-03-05T13:53:42.434Z,8.86
2023-03-05T13:56:07.967Z,8.88
2023-03-05T13:58:33.473Z,8.94
2023-03-05T14:00:58.956Z,8.99
2023-03-05T14:03:24.484Z,9.07
2023-03-05T14:05:50.090Z,9.02
2023-03-05T14:08:15.914Z,9.03
2023-03-05T14:15:43.064Z,9.14
2023-03-05T14:18:08.569Z,9.17
2023-03-05T14:20:34.060Z,9.16
2023-03-05T14:22:59.585Z,9.17
2023-03-05T14:25:25.122Z,9.19
2023-03-05T14:27:50.611Z,9.20
2023-03-05T14:30:16.099Z,9.19
2023-03-05T14:32:41.736Z,9.13
2023-03-05T14:40:09.122Z,9.12
2023-03-05T14:42:36.395Z,9.11
2023-03-05T14:45:03.110Z,9.18
2023-03-05T14:47:28.620Z,9.18
2023-03-05T14:49:54.105Z,9.09
2023-03-05T14:52:19.611Z,9.14
2023-03-05T14:54:45.169Z,9.17
2023-03-05T14:57:10.911Z,9.19
2023-03-05T15:04:38.582Z,9.16
2023-03-05T15:07:04.084Z,9.11
2023-03-05T15:09:29.603Z,9.07
2023-03-05T15:11:55.138Z,8.98
2023-03-05T15:14:20.683Z,9.00
2023-03-05T15:16:46.255Z,9.00
2023-03-05T15:19:11.854Z,9.02
2023-03-05T15:21:37.361Z,8.94
2023-03-05T15:29:04.550Z,8.91
2023-03-05T15:31:30.219Z,8.91
2023-03-05T15:33:55.839Z,8.94
2023-03-05T15:36:21.342Z,8.95
2023-03-05T15:38:46.882Z,8.95
2023-03-05T15:41:12.429Z,8.89
2023-03-05T15:43:38.004Z,8.81
2023-03-05T15:46:03.577Z,8.80
2023-03-05T15:53:30.681Z,8.86
2023-03-05T15:55:56.187Z,8.81
2023-03-05T15:58:21.710Z,8.77
2023-03-05T16:00:47.227Z,8.76
2023-03-05T16:03:12.781Z,8.73
2023-03-05T16:05:38.296Z,8.73
2023-03-05T16:08:03.830Z,8.67
2023-03-05T16:10:29.328Z,8.79
2023-03-05T16:17:56.803Z,8.82
2023-03-05T16:20:22.302Z,8.85
2023-03-05T16:22:47.776Z,8.90
2023-03-05T16:25:13.281Z,8.93
2023-03-05T16:27:38.826Z,8.90
2023-03-05T16:30:04.325Z,8.82
2023-03-05T16:32:29.845Z,8.83
2023-03-05T16:34:55.604Z,8.75
2023-03-05T16:42:22.908Z,8.68
2023-03-05T16:44:48.406Z,8.64
2023-03-05T16:47:13.934Z,8.70
2023-03-05T16:49:39.482Z,8.72
2023-03-05T16:52:16.416Z,8.59
2023-03-05T16:54:43.466Z,8.48
2023-03-05T16:57:08.981Z,8.47
2023-03-05T16:59:34.526Z,8.49
2023-03-05T17:07:01.848Z,8.46
2023-03-05T17:09:27.447Z,8.41
2023-03-05T17:11:53.050Z,8.43
2023-03-05T17:14:18.595Z,8.44
2023-03-05T17:16:44.172Z,8.47
2023-03-05T17:19:09.727Z,8.48
2023-03-05T17:21:35.304Z,8.39
2023-03-05T17:24:01.146Z,8.37
2023-03-05T17:31:27.909Z,8.38
2023-03-05T17:33:53.394Z,8.44
2023-03-05T17:36:18.933Z,8.36
2023-03-05T17:38:44.511Z,8.36
2023-03-05T17:41:10.057Z,8.33
2023-03-05T17:43:35.635Z,8.26
2023-03-05T17:46:01.177Z,8.13
2023-03-05T17:48:26.730Z,8.01
2023-03-05T17:55:54.028Z,7.96
2023-03-05T17:58:19.543Z,8.06
2023-03-05T18:00:45.173Z,8.04
2023-03-05T18:03:10.707Z,8.03
2023-03-05T18:05:36.226Z,8.03
2023-03-05T18:08:01.739Z,8.09
2023-03-05T18:10:27.289Z,8.14
2023-03-05T18:12:52.825Z,8.12
2023-03-05T18:20:20.127Z,8.07
2023-03-05T18:22:45.636Z,8.00
2023-03-05T18:25:11.127Z,8.04
2023-03-05T18:27:36.640Z,8.06
2023-03-05T18:30:02.150Z,8.07
2023-03-05T18:32:27.854Z,8.05
2023-03-05T18:34:53.413Z,8.06
2023-03-05T18:37:18.905Z,8.06
2023-03-05T18:44:46.345Z,8.07
2023-03-05T18:47:11.867Z,8.11
2023-03-05T18:49:37.364Z,8.10
2023-03-05T18:52:02.872Z,8.08
2023-03-05T18:54:28.417Z,8.09
2023-03-05T18:56:53.985Z,8.10
2023-03-05T18:59:19.536Z,8.13
2023-03-05T19:01:45.314Z,8.13
2023-03-05T19:09:12.411Z,8.08
2023-03-05T19:11:37.945Z,8.09
2023-03-05T19:14:03.451Z,8.07
2023-03-05T19:16:28.984Z,8.08
2023-03-05T19:18:54.536Z,7.98
2023-03-05T19:21:20.077Z,7.95
2023-03-05T19:23:45.561Z,7.95
2023-03-05T19:26:11.045Z,7.94
2023-03-05T19:33:38.530Z,7.94
2023-03-05T19:36:04.004Z,7.96
2023-03-05T19:38:29.515Z,7.96
2023-03-05T19:40:55.048Z,7.99
2023-03-05T19:43:20.580Z,8.03
2023-03-05T19:45:46.117Z,8.01
2023-03-05T19:48:11.684Z,7.96
2023-03-05T19:53:21.565Z,7.97
2023-03-05T19:55:47.052Z,7.93
2023-03-05T19:58:12.592Z,7.92
2023-03-05T20:00:38.082Z,7.83
2023-03-05T20:03:03.563Z,7.89
2023-03-05T20:05:29.044Z,7.87
2023-03-05T20:07:54.610Z,7.88
2023-03-05T20:10:20.143Z,7.87
2023-03-05T20:17:47.652Z,8.01
2023-03-05T20:20:13.142Z,8.03
2023-03-05T20:22:38.630Z,7.99
2023-03-05T20:25:04.102Z,7.96
2023-03-05T20:27:29.598Z,8.03
2023-03-05T20:29:55.136Z,8.03
2023-03-05T20:32:20.708Z,8.05
2023-03-05T20:34:46.467Z,8.03
2023-03-05T20:42:13.780Z,8.06
2023-03-05T20:44:39.308Z,8.06
2023-03-05T20:47:04.886Z,8.03
2023-03-05T20:49:30.465Z,8.06
2023-03-05T20:51:56.007Z,8.01
2023-03-05T20:54:21.542Z,8.02
2023-03-05T20:56:47.019Z,7.99
2023-03-05T20:59:12.798Z,7.95
2023-03-05T21:06:39.884Z,7.93
2023-03-05T21:09:05.426Z,7.89
2023-03-05T21:11:30.954Z,7.85
2023-03-05T21:13:56.523Z,7.81
2023-03-05T21:16:22.092Z,7.83
2023-03-05T21:18:47.594Z,7.86
2023-03-05T21:21:13.135Z,7.87
2023-03-05T21:23:38.671Z,7.77
2023-03-05T21:33:26.329Z,7.79
2023-03-05T21:35:51.865Z,7.79
2023-03-05T21:38:17.396Z,7.82
2023-03-05T21:40:42.882Z,7.79
2023-03-05T21:43:08.408Z,7.78
2023-03-05T21:45:33.990Z,7.77
2023-03-05T21:47:59.539Z,7.73
2023-03-05T21:50:25.062Z,7.80
2023-03-05T21:57:52.424Z,7.78
2023-03-05T22:00:17.972Z,7.77
2023-03-05T22:02:43.456Z,7.79
2023-03-05T22:05:08.941Z,7.79
2023-03-05T22:07:34.463Z,7.81
2023-03-05T22:09:59.958Z,7.80
2023-03-05T22:12:25.489Z,7.82
2023-03-05T22:14:51.280Z,7.83
2023-03-05T22:22:18.512Z,7.76
2023-03-05T22:24:44.001Z,7.69
2023-03-05T22:27:09.529Z,7.68
2023-03-05T22:29:35.121Z,7.68
2023-03-05T22:32:00.658Z,7.62
2023-03-05T22:34:26.222Z,7.58
2023-03-05T22:36:51.754Z,7.54
2023-03-05T22:39:17.502Z,7.51
2023-03-05T22:46:44.585Z,7.61
2023-03-05T22:49:10.070Z,7.60
2023-03-05T22:51:35.592Z,7.66
2023-03-05T22:54:01.131Z,7.64
2023-03-05T22:56:26.653Z,7.63
2023-03-05T22:58:52.151Z,7.67
2023-03-05T23:01:17.687Z,7.68
2023-03-05T23:03:43.578Z,7.69
2023-03-05T23:11:10.791Z,7.55
2023-03-05T23:13:36.293Z,7.51
2023-03-05T23:16:01.910Z,7.49
2023-03-05T23:18:27.540Z,7.52
2023-03-05T23:20:53.154Z,7.46
2023-03-05T23:23:18.646Z,7.38
2023-03-05T23:25:44.137Z,7.34
2023-03-05T23:28:09.847Z,7.35
2023-03-05T23:35:36.880Z,7.35
2023-03-05T23:38:02.415Z,7.43
2023-03-05T23:40:27.964Z,7.34
2023-03-05T23:42:53.551Z,7.36
2023-03-05T23:45:19.089Z,7.43
2023-03-05T23:47:44.671Z,7.36
2023-03-05T23:50:10.201Z,7.34
2023-03-05T23:52:35.731Z,7.37
